Costa Favolosa — ICPK — position and weather

sailwx.info

Track history (hours):
 
Tides and Currents Weather Stations Pressure Air Temp Water Temp Dewpoint Dewpoint Depression Visibility Wind Speed Wind Dir Waves Ship Positions

Costa Favolosa

Last reported at 2020-Jan-24 06:48 UTC. Time now 2020-Jan-25 06:05 UTC.
Position N 15°28' W 061°54'.

Length 291 m; draft 8.3 m.

Type: Passenger vessel. MMSI: 247311100.

Date/timePositionNaut miles runAvg speedWind from/ knotsBaromVisibWave heightAir tempDewpointWater temp
2020-Jan-24 06:48N 15°28' W 061°54'12018.9
2020-Jan-24 00:29N 17°12' W 062°56'1818.5
2020-Jan-23 23:30N 17°28' W 063°06'3118.2
2020-Jan-23 21:47N 17°59' W 063°06'4 0.4
2020-Jan-23 12:20N 18°01' W 063°03'1 0.5
2020-Jan-23 10:53N 18°00' W 063°03'95 4.0
2020-Jan-22 10:53N 18°09' W 064°43'3317.3
2020-Jan-22 09:00N 17°54' W 065°13'  
2020-Jan-16 03:57N 17°43' W 062°42'1111.1
2020-Jan-16 03:00N 17°47' W 062°52'611.0
2020-Jan-16 02:29N 17°50' W 062°57'1210.5
2020-Jan-16 01:20N 17°59' W 063°06'3 1.5
2020-Jan-15 23:20N 18°01' W 063°03'0 0.0
2020-Jan-15 22:26N 18°01' W 063°03'0 0.0
2020-Jan-15 19:59N 18°01' W 063°03'0 0.0
2020-Jan-15 19:29N 18°01' W 063°03'0 0.0
2020-Jan-15 17:34N 18°01' W 063°03'4311.8
2020-Jan-15 13:55N 17°57' W 063°48'5920.8
2020-Jan-15 11:06N 17°52' W 064°49'  
Track history (hours):
 
Tides and Currents Weather Stations Pressure Air Temp Water Temp Dewpoint Dewpoint Depression Visibility Wind Speed Wind Dir Waves Ship Positions

Costa Favolosa

Last reported at 2020-Jan-24 06:48 UTC. Time now 2020-Jan-25 06:05 UTC.
Position N 15°28' W 061°54'.

Length 291 m; draft 8.3 m.

Type: Passenger vessel. MMSI: 247311100.

Date/timePositionNaut miles runAvg speedWind from/ knotsBaromVisibWave heightAir tempDewpointWater temp
2020-Jan-24 06:48N 15°28' W 061°54'12018.9
2020-Jan-24 00:29N 17°12' W 062°56'1818.5
2020-Jan-23 23:30N 17°28' W 063°06'3118.2
2020-Jan-23 21:47N 17°59' W 063°06'4 0.4
2020-Jan-23 12:20N 18°01' W 063°03'1 0.5
2020-Jan-23 10:53N 18°00' W 063°03'95 4.0
2020-Jan-22 10:53N 18°09' W 064°43'3317.3
2020-Jan-22 09:00N 17°54' W 065°13'  
2020-Jan-16 03:57N 17°43' W 062°42'1111.1
2020-Jan-16 03:00N 17°47' W 062°52'611.0
2020-Jan-16 02:29N 17°50' W 062°57'1210.5
2020-Jan-16 01:20N 17°59' W 063°06'3 1.5
2020-Jan-15 23:20N 18°01' W 063°03'0 0.0
2020-Jan-15 22:26N 18°01' W 063°03'0 0.0
2020-Jan-15 19:59N 18°01' W 063°03'0 0.0
2020-Jan-15 19:29N 18°01' W 063°03'0 0.0
2020-Jan-15 17:34N 18°01' W 063°03'4311.8
2020-Jan-15 13:55N 17°57' W 063°48'5920.8
2020-Jan-15 11:06N 17°52' W 064°49'  

Dump ship's entire track history